Impacts METAR Board
IDs:

KDCA - Washington/National, VA, US

Updated at: 0300 UTC 20 Mar 2019
Potential Impact None Slight Moderate High
Time 19/15Z 19/16Z 19/17Z 19/18Z 19/19Z 19/20Z 19/21Z 19/22Z 19/23Z 20/00Z 20/01Z 20/02Z 20/03Z
Temp46 47 49 51 51 53 53 52 50 47 46 43 45
Dewpt14 14 15 15 15 16 15 17 17 20 19 19 15
Altim30.49 30.49 30.47 30.45 30.43 30.41 30.40 30.39 30.40 30.41 30.41 30.43 30.42
VIS10 10 10 10 10 10 10 10 10 10 10 10 10
CIG-- -- -- -- -- -- -- -- -- -- -- -- --
CoverCLRFEWFEWFEWSCTSCTFEWFEWFEWFEWCLRCLRCLR
FltCatVFRVFRVFRVFRVFRVFRVFRVFRVFRVFRVFRVFRVFR
WX--------------------------
WDir01301402800301036036090130170120
WSpd0 3 6 6 0 6 6 8 6 8 8 5 3
WGst-- -- -- -- -- -- -- -- -- -- -- -- --
Raw hourly METARs
KDCA 191452Z 00000KT 10SM CLR 08/M10 A3049 RMK AO2 SLP326 T00781100 51014
KDCA 191552Z 13003KT 10SM FEW045 08/M10 A3049 RMK AO2 SLP324 T00831100
KDCA 191652Z 14006KT 10SM FEW050 09/M09 A3047 RMK AO2 SLP318 T00941094
KDCA 191752Z 28006KT 10SM FEW050 11/M09 A3045 RMK AO2 SLP312 T01061094 10106 20033 58013
KDCA 191852Z 00000KT 10SM FEW065 SCT250 11/M09 A3043 RMK AO2 SLP306 T01061094
KDCA 191952Z 03006KT 10SM FEW070 SCT250 12/M09 A3041 RMK AO2 SLP299 T01171089
KDCA 192052Z 01006KT 10SM FEW070 FEW250 12/M09 A3040 RMK AO2 SLP293 T01171094 56020
KDCA 192152Z 36008KT 10SM FEW250 11/M08 A3039 RMK AO2 SLP290 T01111083
KDCA 192252Z 36006KT 10SM FEW250 10/M08 A3040 RMK AO2 SLP293 T01001083
KDCA 192352Z 09008KT 10SM FEW250 08/M07 A3041 RMK AO2 SLP296 T00831067 10122 20083 53003
KDCA 200052Z 13008KT 10SM CLR 08/M07 A3041 RMK AO2 SLP299 T00781072
KDCA 200152Z 17005KT 10SM CLR 06/M07 A3043 RMK AO2 SLP302 T00611072
KDCA 200252Z 12003KT 10SM CLR 07/M09 A3042 RMK AO2 SLP301 T00721094 50005



Page loaded:  03:43 UTC  |   08:43 PM Pacific  |   09:43 PM Mountain  |   10:43 PM Central  |   11:43 PM Eastern

 

ADVISORIES

FORECASTS

FORECASTS

OBSERVATIONS

USER TOOLS

ABOUT US